• Join FlightAware (Why Join?)
  • Login
  • US Flag 
12:06AM EDT


 

Airport Tracker/Info


-or-


 

Live Flight TrackerFlight Track Log ✈ N159PG ✈ 02-Sep-2013 ✈ KFRG - KISP

Flight Track Log - Related Links

Times and Time Zones

All times are in EDT time to prevent confusion due to time zone crossing. See the N159PG flight status page for this flight to view local times or setup timezone preferences in your user account.

Time Position Orientation Groundspeed Altitude Reporting Facility
EDT Latitude Longitude Course Direction KTS MPH feet Rate Location/Type
10:37AM 40.7000 -73.4000 217° Southwest 101 116 900  Level New York TRACON
10:38AM 40.6833 -73.4167 217° Southwest 104 120 1,400 480 Climbing New York TRACON
10:39AM 40.6500 -73.4500 217° Southwest 111 128 1,900 540 Climbing New York TRACON
10:40AM 40.6333 -73.4167 123° Southeast 124 143 2,500 540 Climbing New York TRACON
10:41AM 40.6333 -73.3833 90° East 123 142 3,000 180 Climbing New York TRACON
10:42AM 40.6500 -73.3333 66° East 138 159 2,900 -60 Descending New York TRACON
10:43AM 40.6667 -73.3000 57° Northeast 129 148 2,900  Level New York TRACON
10:44AM 40.6833 -73.2500 66° East 126 145 3,000  Climbing New York TRACON
10:45AM 40.7000 -73.2167 57° Northeast 126 145 3,000  Level New York TRACON
10:46AM 40.7000 -73.1667 90° East 126 145 3,000  Level New York TRACON
10:47AM 40.7167 -73.1333 57° Northeast 127 146 3,000  Level New York TRACON
10:48AM 40.7500 -73.1000 37° Northeast 128 147 3,000  Level New York TRACON
10:49AM 40.7833 -73.0667 37° Northeast 128 147 3,000  Level New York TRACON
10:50AM 40.8000 -73.0333 57° Northeast 127 146 3,000 -300 Level New York TRACON
10:51AM 40.8333 -73.0000 37° Northeast 141 162 2,500 -480 Descending New York TRACON
10:51AM 40.8500 -72.9667 57° Northeast 143 165 2,100 -300 Descending New York TRACON
10:53AM 40.8667 -72.9167 66° East 126 145 2,000 -60 Descending New York TRACON
10:54AM 40.9000 -72.9333 339° North 116 133 2,000  Level New York TRACON
10:55AM 40.9000 -72.9667 270° West 103 119 2,000  Level New York TRACON
10:55AM 40.8833 -72.9833 217° Southwest 100 115 2,000 -180 Level New York TRACON
10:57AM 40.8667 -73.0167 237° Southwest 107 123 1,700 -360 Descending New York TRACON
10:58AM 40.8500 -73.0333 217° Southwest 106 122 1,300 -540 Descending New York TRACON
10:59AM 40.8167 -73.0667 217° Southwest 106 122 700 -300 Descending New York TRACON
11:00AM 40.8000 -73.1000 237° Southwest 105 121 700 300 Level New York TRACON
11:00AM 40.7833 -73.1167 217° Southwest 100 115 1,300 600 Climbing New York TRACON
11:01AM 40.7667 -73.1333 217° Southwest 96 110 1,900 300 Climbing New York TRACON
11:02AM 40.7500 -73.1167 143° Southeast 130 150 2,000  Climbing New York TRACON
11:03AM 40.7667 -73.0833 57° Northeast 121 139 2,000  Level New York TRACON
11:04AM 40.7833 -73.0500 57° Northeast 128 147 2,000  Level New York TRACON
11:05AM 40.8167 -73.0167 37° Northeast 132 152 2,000  Level New York TRACON
11:06AM 40.8500 -72.9833 37° Northeast 133 153 2,000  Level New York TRACON
11:07AM 40.8667 -72.9667 37° Northeast 138 159 2,000  Level New York TRACON
11:08AM 40.8833 -73.0000 303° West 118 136 2,000 -120 Level New York TRACON
11:09AM 40.8667 -73.0167 217° Southwest 103 119 1,800 -480 Descending New York TRACON
11:10AM 40.8500 -73.0500 237° Southwest 103 119 1,100 -600 Descending New York TRACON
11:11AM 40.8167 -73.0667 201° Southwest 100 115 700 -300 Descending New York TRACON
11:12AM 40.8000 -73.1000 237° Southwest 107 123 600 240 Descending New York TRACON
11:13AM 40.7833 -73.1167 217° Southwest 109 125 1,200 540 Climbing New York TRACON
11:14AM 40.7667 -73.1500 237° Southwest 113 130 1,700 360 Climbing New York TRACON
11:15AM 40.7667 -73.1833 270° West 131 151 2,000 120 Climbing New York TRACON
11:16AM 40.7667 -73.2333 270° West 128 147 2,000  Level New York TRACON
11:17AM 40.7833 -73.2833 294° West 119 137 2,000  Level New York TRACON
11:18AM 40.7833 -73.3167 270° West 112 129 2,000  Level New York TRACON
11:19AM 40.7833 -73.3667 270° West 115 132 2,000  Level New York TRACON
11:20AM 40.7833 -73.4000 270° West 115 132 2,000  Level New York TRACON
11:21AM 40.7833 -73.4500 270° West 115 132 2,000  Level New York TRACON
11:22AM 40.7833 -73.4833 270° West 115 132 2,000 -240 Level New York TRACON
11:23AM 40.7833 -73.5333 270° West 117 135 1,600 -240 Descending New York TRACON
11:24AM 40.8000 -73.5333 360° North 107 123 1,600  Level New York TRACON
11:25AM 40.7833 -73.5000 123° Southeast 98 113 1,600 -300 Level New York TRACON
11:26AM 40.7667 -73.4667 123° Southeast 107 123 1,100 -600 Descending New York TRACON
11:27AM 40.7500 -73.4500 143° Southeast 102 117 500 -600 Descending New York TRACON